sensor_id;sensor_type;location;lat;lon;timestamp;P1;durP1;ratioP1;P2;durP2;ratioP2
75427;SDS011;64008;55.612;37.698;2023-04-24T00:01:36;19.77;;;7.25;;
75427;SDS011;64008;55.612;37.698;2023-04-24T00:04:02;16.70;;;6.78;;
75427;SDS011;64008;55.612;37.698;2023-04-24T00:06:28;20.40;;;6.65;;
75427;SDS011;64008;55.612;37.698;2023-04-24T00:08:58;17.15;;;7.10;;
75427;SDS011;64008;55.612;37.698;2023-04-24T00:11:25;17.00;;;6.50;;
75427;SDS011;64008;55.612;37.698;2023-04-24T00:13:51;16.50;;;6.53;;
75427;SDS011;64008;55.612;37.698;2023-04-24T00:16:17;21.63;;;6.97;;
75427;SDS011;64008;55.612;37.698;2023-04-24T00:18:42;18.45;;;7.35;;
75427;SDS011;64008;55.612;37.698;2023-04-24T00:21:10;16.00;;;7.10;;
75427;SDS011;64008;55.612;37.698;2023-04-24T00:23:35;17.73;;;7.25;;
75427;SDS011;64008;55.612;37.698;2023-04-24T00:26:01;16.52;;;7.35;;
75427;SDS011;64008;55.612;37.698;2023-04-24T00:28:27;28.08;;;12.00;;
75427;SDS011;64008;55.612;37.698;2023-04-24T00:30:53;19.67;;;7.82;;
75427;SDS011;64008;55.612;37.698;2023-04-24T00:35:44;17.67;;;6.93;;
75427;SDS011;64008;55.612;37.698;2023-04-24T00:38:10;16.05;;;7.15;;
75427;SDS011;64008;55.612;37.698;2023-04-24T00:40:35;18.50;;;6.50;;
75427;SDS011;64008;55.612;37.698;2023-04-24T00:43:01;18.00;;;7.57;;
75427;SDS011;64008;55.612;37.698;2023-04-24T00:45:26;18.83;;;7.25;;
75427;SDS011;64008;55.612;37.698;2023-04-24T00:47:52;17.67;;;7.80;;
75427;SDS011;64008;55.612;37.698;2023-04-24T00:50:18;18.45;;;7.03;;
75427;SDS011;64008;55.612;37.698;2023-04-24T00:52:46;16.70;;;8.15;;
75427;SDS011;64008;55.612;37.698;2023-04-24T00:55:12;15.63;;;6.70;;
75427;SDS011;64008;55.612;37.698;2023-04-24T00:57:37;12.55;;;6.63;;
75427;SDS011;64008;55.612;37.698;2023-04-24T01:00:04;18.58;;;6.82;;
75427;SDS011;64008;55.612;37.698;2023-04-24T01:02:30;14.10;;;6.65;;
75427;SDS011;64008;55.612;37.698;2023-04-24T01:04:59;15.45;;;6.75;;
75427;SDS011;64008;55.612;37.698;2023-04-24T01:07:26;16.88;;;7.80;;
75427;SDS011;64008;55.612;37.698;2023-04-24T01:09:52;16.25;;;7.10;;
75427;SDS011;64008;55.612;37.698;2023-04-24T01:12:19;16.75;;;7.55;;
75427;SDS011;64008;55.612;37.698;2023-04-24T01:17:10;18.15;;;7.10;;
75427;SDS011;64008;55.612;37.698;2023-04-24T01:19:36;19.67;;;7.43;;
75427;SDS011;64008;55.612;37.698;2023-04-24T01:22:03;20.33;;;7.85;;
75427;SDS011;64008;55.612;37.698;2023-04-24T01:24:33;15.93;;;6.93;;
75427;SDS011;64008;55.612;37.698;2023-04-24T01:26:59;15.73;;;6.95;;
75427;SDS011;64008;55.612;37.698;2023-04-24T01:31:51;14.90;;;7.07;;
75427;SDS011;64008;55.612;37.698;2023-04-24T01:34:17;16.75;;;6.88;;
75427;SDS011;64008;55.612;37.698;2023-04-24T01:36:42;15.38;;;7.07;;
75427;SDS011;64008;55.612;37.698;2023-04-24T01:39:10;18.23;;;6.82;;
75427;SDS011;64008;55.612;37.698;2023-04-24T01:41:36;18.92;;;6.78;;
75427;SDS011;64008;55.612;37.698;2023-04-24T01:44:02;14.43;;;6.88;;
75427;SDS011;64008;55.612;37.698;2023-04-24T01:46:27;15.35;;;7.00;;
75427;SDS011;64008;55.612;37.698;2023-04-24T01:48:53;13.30;;;6.78;;
75427;SDS011;64008;55.612;37.698;2023-04-24T01:53:45;14.85;;;6.70;;
75427;SDS011;64008;55.612;37.698;2023-04-24T01:56:10;12.57;;;6.35;;
75427;SDS011;64008;55.612;37.698;2023-04-24T01:58:36;13.35;;;6.57;;
75427;SDS011;64008;55.612;37.698;2023-04-24T02:01:02;15.32;;;6.68;;
75427;SDS011;64008;55.612;37.698;2023-04-24T02:03:27;15.70;;;6.95;;
75427;SDS011;64008;55.612;37.698;2023-04-24T02:05:53;12.85;;;6.60;;
75427;SDS011;64008;55.612;37.698;2023-04-24T02:08:18;17.15;;;6.97;;
75427;SDS011;64008;55.612;37.698;2023-04-24T02:10:44;13.18;;;6.43;;
75427;SDS011;64008;55.612;37.698;2023-04-24T02:13:10;14.20;;;6.50;;
75427;SDS011;64008;55.612;37.698;2023-04-24T02:15:35;15.43;;;6.70;;
75427;SDS011;64008;55.612;37.698;2023-04-24T02:18:01;16.83;;;7.55;;
75427;SDS011;64008;55.612;37.698;2023-04-24T02:20:27;13.52;;;7.13;;
75427;SDS011;64008;55.612;37.698;2023-04-24T02:22:52;13.27;;;7.18;;
75427;SDS011;64008;55.612;37.698;2023-04-24T02:25:18;15.38;;;7.28;;
75427;SDS011;64008;55.612;37.698;2023-04-24T02:27:43;17.10;;;7.13;;
75427;SDS011;64008;55.612;37.698;2023-04-24T02:30:09;17.63;;;7.55;;
75427;SDS011;64008;55.612;37.698;2023-04-24T02:32:35;17.05;;;6.80;;
75427;SDS011;64008;55.612;37.698;2023-04-24T02:35:01;14.98;;;7.68;;
75427;SDS011;64008;55.612;37.698;2023-04-24T02:37:26;16.42;;;9.02;;
75427;SDS011;64008;55.612;37.698;2023-04-24T02:39:52;18.23;;;7.72;;
75427;SDS011;64008;55.612;37.698;2023-04-24T02:42:17;15.13;;;6.82;;
75427;SDS011;64008;55.612;37.698;2023-04-24T02:44:43;17.05;;;7.22;;
75427;SDS011;64008;55.612;37.698;2023-04-24T02:47:08;14.82;;;7.13;;
75427;SDS011;64008;55.612;37.698;2023-04-24T02:49:34;13.43;;;6.70;;
75427;SDS011;64008;55.612;37.698;2023-04-24T02:51:59;17.13;;;7.50;;
75427;SDS011;64008;55.612;37.698;2023-04-24T02:54:25;13.88;;;7.43;;
75427;SDS011;64008;55.612;37.698;2023-04-24T02:56:50;15.55;;;7.03;;
75427;SDS011;64008;55.612;37.698;2023-04-24T02:59:16;13.93;;;7.60;;
75427;SDS011;64008;55.612;37.698;2023-04-24T03:01:41;16.13;;;7.22;;
75427;SDS011;64008;55.612;37.698;2023-04-24T03:04:07;16.67;;;7.50;;
75427;SDS011;64008;55.612;37.698;2023-04-24T03:06:32;16.27;;;7.13;;
75427;SDS011;64008;55.612;37.698;2023-04-24T03:09:00;15.23;;;7.63;;
75427;SDS011;64008;55.612;37.698;2023-04-24T03:11:26;19.58;;;8.32;;
75427;SDS011;64008;55.612;37.698;2023-04-24T03:13:51;14.40;;;7.82;;
75427;SDS011;64008;55.612;37.698;2023-04-24T03:16:17;17.52;;;7.47;;
75427;SDS011;64008;55.612;37.698;2023-04-24T03:18:42;14.48;;;6.60;;
75427;SDS011;64008;55.612;37.698;2023-04-24T03:21:08;14.48;;;7.22;;
75427;SDS011;64008;55.612;37.698;2023-04-24T03:23:33;16.35;;;7.63;;
75427;SDS011;64008;55.612;37.698;2023-04-24T03:25:59;15.90;;;7.05;;
75427;SDS011;64008;55.612;37.698;2023-04-24T03:28:24;11.73;;;6.80;;
75427;SDS011;64008;55.612;37.698;2023-04-24T03:30:50;14.93;;;6.88;;
75427;SDS011;64008;55.612;37.698;2023-04-24T03:33:17;19.02;;;6.90;;
75427;SDS011;64008;55.612;37.698;2023-04-24T03:35:42;15.48;;;7.32;;
75427;SDS011;64008;55.612;37.698;2023-04-24T03:38:08;16.63;;;6.80;;
75427;SDS011;64008;55.612;37.698;2023-04-24T03:40:33;14.20;;;6.10;;
75427;SDS011;64008;55.612;37.698;2023-04-24T03:42:59;13.05;;;6.75;;
75427;SDS011;64008;55.612;37.698;2023-04-24T03:45:25;15.40;;;7.53;;
75427;SDS011;64008;55.612;37.698;2023-04-24T03:47:50;13.25;;;7.13;;
75427;SDS011;64008;55.612;37.698;2023-04-24T03:50:16;16.75;;;6.47;;
75427;SDS011;64008;55.612;37.698;2023-04-24T03:52:41;14.18;;;6.50;;
75427;SDS011;64008;55.612;37.698;2023-04-24T03:55:07;15.43;;;6.85;;
75427;SDS011;64008;55.612;37.698;2023-04-24T03:57:32;14.35;;;7.18;;
75427;SDS011;64008;55.612;37.698;2023-04-24T03:59:58;11.52;;;6.88;;
75427;SDS011;64008;55.612;37.698;2023-04-24T04:02:23;15.10;;;6.53;;
75427;SDS011;64008;55.612;37.698;2023-04-24T04:04:49;13.93;;;5.63;;
75427;SDS011;64008;55.612;37.698;2023-04-24T04:07:14;15.20;;;6.57;;
75427;SDS011;64008;55.612;37.698;2023-04-24T04:09:40;15.40;;;6.63;;
75427;SDS011;64008;55.612;37.698;2023-04-24T04:12:05;15.10;;;6.60;;
75427;SDS011;64008;55.612;37.698;2023-04-24T04:14:31;13.65;;;6.63;;
75427;SDS011;64008;55.612;37.698;2023-04-24T04:16:56;16.52;;;6.97;;
75427;SDS011;64008;55.612;37.698;2023-04-24T04:19:22;11.60;;;6.47;;
75427;SDS011;64008;55.612;37.698;2023-04-24T04:21:47;15.10;;;7.05;;
75427;SDS011;64008;55.612;37.698;2023-04-24T04:24:18;17.02;;;7.07;;
75427;SDS011;64008;55.612;37.698;2023-04-24T04:26:45;13.20;;;7.40;;
75427;SDS011;64008;55.612;37.698;2023-04-24T04:29:12;15.73;;;6.55;;
75427;SDS011;64008;55.612;37.698;2023-04-24T04:31:38;17.20;;;7.47;;
75427;SDS011;64008;55.612;37.698;2023-04-24T04:34:03;14.77;;;7.45;;
75427;SDS011;64008;55.612;37.698;2023-04-24T04:36:29;34.78;;;9.15;;
75427;SDS011;64008;55.612;37.698;2023-04-24T04:38:54;14.38;;;8.93;;
75427;SDS011;64008;55.612;37.698;2023-04-24T04:41:21;14.55;;;7.50;;
75427;SDS011;64008;55.612;37.698;2023-04-24T04:43:47;14.27;;;8.82;;
75427;SDS011;64008;55.612;37.698;2023-04-24T04:46:13;18.38;;;7.53;;
75427;SDS011;64008;55.612;37.698;2023-04-24T04:48:39;15.45;;;7.80;;
75427;SDS011;64008;55.612;37.698;2023-04-24T04:51:05;18.02;;;8.77;;
75427;SDS011;64008;55.612;37.698;2023-04-24T04:53:31;17.00;;;7.85;;
75427;SDS011;64008;55.612;37.698;2023-04-24T04:55:56;15.60;;;8.05;;
75427;SDS011;64008;55.612;37.698;2023-04-24T04:58:22;16.27;;;7.25;;
75427;SDS011;64008;55.612;37.698;2023-04-24T05:00:48;17.00;;;7.93;;
75427;SDS011;64008;55.612;37.698;2023-04-24T05:03:13;15.85;;;7.20;;
75427;SDS011;64008;55.612;37.698;2023-04-24T05:05:39;13.60;;;7.18;;
75427;SDS011;64008;55.612;37.698;2023-04-24T05:10:32;12.73;;;6.82;;
75427;SDS011;64008;55.612;37.698;2023-04-24T05:12:57;14.45;;;7.20;;
75427;SDS011;64008;55.612;37.698;2023-04-24T05:15:23;14.43;;;7.68;;
75427;SDS011;64008;55.612;37.698;2023-04-24T05:17:48;16.60;;;8.35;;
75427;SDS011;64008;55.612;37.698;2023-04-24T05:20:14;16.88;;;7.07;;
75427;SDS011;64008;55.612;37.698;2023-04-24T05:22:39;13.55;;;6.80;;
75427;SDS011;64008;55.612;37.698;2023-04-24T05:25:05;18.17;;;7.20;;
75427;SDS011;64008;55.612;37.698;2023-04-24T05:27:31;17.75;;;7.85;;
75427;SDS011;64008;55.612;37.698;2023-04-24T05:29:57;14.68;;;7.75;;
75427;SDS011;64008;55.612;37.698;2023-04-24T05:32:22;15.77;;;7.10;;
75427;SDS011;64008;55.612;37.698;2023-04-24T05:34:48;15.10;;;7.25;;
75427;SDS011;64008;55.612;37.698;2023-04-24T05:37:13;14.25;;;7.32;;
75427;SDS011;64008;55.612;37.698;2023-04-24T05:39:39;12.98;;;6.55;;
75427;SDS011;64008;55.612;37.698;2023-04-24T05:42:06;16.75;;;7.35;;
75427;SDS011;64008;55.612;37.698;2023-04-24T05:44:31;18.02;;;8.30;;
75427;SDS011;64008;55.612;37.698;2023-04-24T05:46:57;13.60;;;7.28;;
75427;SDS011;64008;55.612;37.698;2023-04-24T05:49:22;19.88;;;7.90;;
75427;SDS011;64008;55.612;37.698;2023-04-24T05:51:48;14.98;;;6.85;;
75427;SDS011;64008;55.612;37.698;2023-04-24T05:54:13;13.32;;;6.32;;
75427;SDS011;64008;55.612;37.698;2023-04-24T05:56:39;12.82;;;6.65;;
75427;SDS011;64008;55.612;37.698;2023-04-24T05:59:05;13.77;;;6.55;;
75427;SDS011;64008;55.612;37.698;2023-04-24T06:01:31;15.90;;;6.60;;
75427;SDS011;64008;55.612;37.698;2023-04-24T06:03:57;19.27;;;7.00;;
75427;SDS011;64008;55.612;37.698;2023-04-24T06:06:23;15.23;;;6.78;;
75427;SDS011;64008;55.612;37.698;2023-04-24T06:11:14;11.32;;;5.93;;
75427;SDS011;64008;55.612;37.698;2023-04-24T06:13:40;13.10;;;5.80;;
75427;SDS011;64008;55.612;37.698;2023-04-24T06:16:05;17.63;;;7.07;;
75427;SDS011;64008;55.612;37.698;2023-04-24T06:18:31;13.35;;;6.45;;
75427;SDS011;64008;55.612;37.698;2023-04-24T06:20:57;13.50;;;5.82;;
75427;SDS011;64008;55.612;37.698;2023-04-24T06:23:22;14.88;;;6.53;;
75427;SDS011;64008;55.612;37.698;2023-04-24T06:25:47;14.88;;;6.43;;
75427;SDS011;64008;55.612;37.698;2023-04-24T06:28:13;15.95;;;6.25;;
75427;SDS011;64008;55.612;37.698;2023-04-24T06:30:39;13.82;;;6.32;;
75427;SDS011;64008;55.612;37.698;2023-04-24T06:33:04;12.70;;;5.72;;
75427;SDS011;64008;55.612;37.698;2023-04-24T06:35:30;14.35;;;5.80;;
75427;SDS011;64008;55.612;37.698;2023-04-24T06:37:55;12.88;;;6.03;;
75427;SDS011;64008;55.612;37.698;2023-04-24T06:40:21;15.93;;;5.97;;
75427;SDS011;64008;55.612;37.698;2023-04-24T06:42:47;15.85;;;5.50;;
75427;SDS011;64008;55.612;37.698;2023-04-24T06:45:13;11.25;;;5.93;;
75427;SDS011;64008;55.612;37.698;2023-04-24T06:47:38;11.43;;;5.90;;
75427;SDS011;64008;55.612;37.698;2023-04-24T06:50:04;16.08;;;5.60;;
75427;SDS011;64008;55.612;37.698;2023-04-24T06:52:30;10.50;;;4.97;;
75427;SDS011;64008;55.612;37.698;2023-04-24T06:55:01;11.20;;;5.32;;
75427;SDS011;64008;55.612;37.698;2023-04-24T06:57:30;13.52;;;5.82;;
75427;SDS011;64008;55.612;37.698;2023-04-24T06:59:56;11.48;;;5.18;;
75427;SDS011;64008;55.612;37.698;2023-04-24T07:02:22;9.75;;;4.80;;
75427;SDS011;64008;55.612;37.698;2023-04-24T07:04:48;16.23;;;5.40;;
75427;SDS011;64008;55.612;37.698;2023-04-24T07:07:13;14.27;;;5.95;;
75427;SDS011;64008;55.612;37.698;2023-04-24T07:09:42;11.25;;;5.63;;
75427;SDS011;64008;55.612;37.698;2023-04-24T07:12:08;19.38;;;5.00;;
75427;SDS011;64008;55.612;37.698;2023-04-24T07:14:35;8.32;;;4.05;;
75427;SDS011;64008;55.612;37.698;2023-04-24T07:17:02;8.60;;;4.00;;
75427;SDS011;64008;55.612;37.698;2023-04-24T07:19:31;9.32;;;4.00;;
75427;SDS011;64008;55.612;37.698;2023-04-24T07:21:58;9.40;;;4.60;;
75427;SDS011;64008;55.612;37.698;2023-04-24T07:24:26;9.85;;;3.97;;
75427;SDS011;64008;55.612;37.698;2023-04-24T07:26:52;9.32;;;3.75;;
75427;SDS011;64008;55.612;37.698;2023-04-24T07:29:19;8.77;;;4.15;;
75427;SDS011;64008;55.612;37.698;2023-04-24T07:31:45;7.88;;;3.92;;
75427;SDS011;64008;55.612;37.698;2023-04-24T07:34:10;8.80;;;4.00;;
75427;SDS011;64008;55.612;37.698;2023-04-24T07:36:36;9.70;;;3.88;;
75427;SDS011;64008;55.612;37.698;2023-04-24T07:39:03;8.65;;;3.70;;
75427;SDS011;64008;55.612;37.698;2023-04-24T07:41:29;9.50;;;3.78;;
75427;SDS011;64008;55.612;37.698;2023-04-24T07:43:55;9.05;;;3.15;;
75427;SDS011;64008;55.612;37.698;2023-04-24T07:46:21;7.00;;;3.28;;
75427;SDS011;64008;55.612;37.698;2023-04-24T07:48:46;7.40;;;3.22;;
75427;SDS011;64008;55.612;37.698;2023-04-24T07:51:13;7.28;;;3.17;;
75427;SDS011;64008;55.612;37.698;2023-04-24T07:56:05;9.55;;;4.70;;
75427;SDS011;64008;55.612;37.698;2023-04-24T07:58:31;9.43;;;3.33;;
75427;SDS011;64008;55.612;37.698;2023-04-24T08:00:56;9.13;;;4.10;;
75427;SDS011;64008;55.612;37.698;2023-04-24T08:03:22;8.70;;;4.05;;
75427;SDS011;64008;55.612;37.698;2023-04-24T08:05:47;7.18;;;3.22;;
75427;SDS011;64008;55.612;37.698;2023-04-24T08:08:13;6.03;;;3.20;;
75427;SDS011;64008;55.612;37.698;2023-04-24T08:10:38;6.07;;;3.20;;
75427;SDS011;64008;55.612;37.698;2023-04-24T08:13:04;7.22;;;2.80;;
75427;SDS011;64008;55.612;37.698;2023-04-24T08:15:30;7.55;;;3.30;;
75427;SDS011;64008;55.612;37.698;2023-04-24T08:17:56;6.32;;;2.97;;
75427;SDS011;64008;55.612;37.698;2023-04-24T08:20:22;8.77;;;3.30;;
75427;SDS011;64008;55.612;37.698;2023-04-24T08:22:48;8.93;;;3.30;;
75427;SDS011;64008;55.612;37.698;2023-04-24T08:25:13;8.90;;;3.45;;
75427;SDS011;64008;55.612;37.698;2023-04-24T08:27:39;7.45;;;3.55;;
75427;SDS011;64008;55.612;37.698;2023-04-24T08:30:05;6.82;;;3.22;;
75427;SDS011;64008;55.612;37.698;2023-04-24T08:32:33;7.03;;;3.25;;
75427;SDS011;64008;55.612;37.698;2023-04-24T08:34:58;7.97;;;3.50;;
75427;SDS011;64008;55.612;37.698;2023-04-24T08:37:25;7.00;;;3.17;;
75427;SDS011;64008;55.612;37.698;2023-04-24T08:39:52;14.35;;;3.65;;
75427;SDS011;64008;55.612;37.698;2023-04-24T08:42:18;16.38;;;3.55;;
75427;SDS011;64008;55.612;37.698;2023-04-24T08:44:45;14.45;;;3.42;;
75427;SDS011;64008;55.612;37.698;2023-04-24T08:47:11;12.00;;;3.45;;
75427;SDS011;64008;55.612;37.698;2023-04-24T08:49:37;6.50;;;2.88;;
75427;SDS011;64008;55.612;37.698;2023-04-24T08:52:07;8.77;;;3.50;;
75427;SDS011;64008;55.612;37.698;2023-04-24T08:54:35;9.02;;;3.42;;
75427;SDS011;64008;55.612;37.698;2023-04-24T08:57:02;6.63;;;2.97;;
75427;SDS011;64008;55.612;37.698;2023-04-24T08:59:29;5.80;;;2.97;;
75427;SDS011;64008;55.612;37.698;2023-04-24T09:01:56;6.10;;;3.05;;
75427;SDS011;64008;55.612;37.698;2023-04-24T09:06:49;6.25;;;2.97;;
75427;SDS011;64008;55.612;37.698;2023-04-24T09:09:20;7.47;;;3.08;;
75427;SDS011;64008;55.612;37.698;2023-04-24T09:11:48;7.15;;;3.25;;
75427;SDS011;64008;55.612;37.698;2023-04-24T09:14:15;7.43;;;3.58;;
75427;SDS011;64008;55.612;37.698;2023-04-24T09:16:40;6.70;;;2.92;;
75427;SDS011;64008;55.612;37.698;2023-04-24T09:19:06;5.57;;;3.03;;
75427;SDS011;64008;55.612;37.698;2023-04-24T09:21:32;6.00;;;2.70;;
75427;SDS011;64008;55.612;37.698;2023-04-24T09:24:03;6.25;;;3.05;;
75427;SDS011;64008;55.612;37.698;2023-04-24T09:26:30;7.60;;;3.55;;
75427;SDS011;64008;55.612;37.698;2023-04-24T09:28:57;6.25;;;3.15;;
75427;SDS011;64008;55.612;37.698;2023-04-24T09:31:24;7.25;;;3.35;;
75427;SDS011;64008;55.612;37.698;2023-04-24T09:33:59;7.75;;;3.38;;
75427;SDS011;64008;55.612;37.698;2023-04-24T09:36:29;8.93;;;3.33;;
75427;SDS011;64008;55.612;37.698;2023-04-24T09:38:59;6.30;;;3.50;;
75427;SDS011;64008;55.612;37.698;2023-04-24T09:41:26;7.35;;;3.40;;
75427;SDS011;64008;55.612;37.698;2023-04-24T09:43:56;14.55;;;3.47;;
75427;SDS011;64008;55.612;37.698;2023-04-24T09:46:32;6.93;;;3.20;;
75427;SDS011;64008;55.612;37.698;2023-04-24T09:48:58;9.52;;;4.20;;
75427;SDS011;64008;55.612;37.698;2023-04-24T09:51:38;7.10;;;3.60;;
75427;SDS011;64008;55.612;37.698;2023-04-24T09:54:13;5.95;;;3.05;;
75427;SDS011;64008;55.612;37.698;2023-04-24T09:56:46;7.20;;;3.25;;
75427;SDS011;64008;55.612;37.698;2023-04-24T09:59:16;6.70;;;3.00;;
75427;SDS011;64008;55.612;37.698;2023-04-24T10:01:44;6.15;;;3.42;;
75427;SDS011;64008;55.612;37.698;2023-04-24T10:06:48;5.53;;;3.17;;
75427;SDS011;64008;55.612;37.698;2023-04-24T10:09:15;8.07;;;3.08;;
75427;SDS011;64008;55.612;37.698;2023-04-24T10:11:42;9.48;;;2.88;;
75427;SDS011;64008;55.612;37.698;2023-04-24T10:14:14;8.93;;;3.30;;
75427;SDS011;64008;55.612;37.698;2023-04-24T10:16:43;7.35;;;2.75;;
75427;SDS011;64008;55.612;37.698;2023-04-24T10:19:12;5.82;;;3.25;;
75427;SDS011;64008;55.612;37.698;2023-04-24T10:21:38;8.07;;;2.97;;
75427;SDS011;64008;55.612;37.698;2023-04-24T10:24:07;5.85;;;3.08;;
75427;SDS011;64008;55.612;37.698;2023-04-24T10:26:34;5.88;;;3.35;;
75427;SDS011;64008;55.612;37.698;2023-04-24T10:31:26;5.90;;;3.17;;
75427;SDS011;64008;55.612;37.698;2023-04-24T10:33:55;5.68;;;2.70;;
75427;SDS011;64008;55.612;37.698;2023-04-24T10:36:23;5.82;;;3.00;;
75427;SDS011;64008;55.612;37.698;2023-04-24T10:38:52;10.50;;;3.10;;
75427;SDS011;64008;55.612;37.698;2023-04-24T10:41:19;7.93;;;3.20;;
75427;SDS011;64008;55.612;37.698;2023-04-24T10:43:48;5.93;;;2.78;;
75427;SDS011;64008;55.612;37.698;2023-04-24T10:46:29;5.63;;;2.92;;
75427;SDS011;64008;55.612;37.698;2023-04-24T10:48:55;7.13;;;2.88;;
75427;SDS011;64008;55.612;37.698;2023-04-24T10:51:23;6.30;;;3.00;;
75427;SDS011;64008;55.612;37.698;2023-04-24T10:53:50;9.95;;;2.83;;
75427;SDS011;64008;55.612;37.698;2023-04-24T10:56:16;8.18;;;3.60;;
75427;SDS011;64008;55.612;37.698;2023-04-24T10:58:43;10.88;;;3.22;;
75427;SDS011;64008;55.612;37.698;2023-04-24T11:01:32;6.78;;;2.95;;
75427;SDS011;64008;55.612;37.698;2023-04-24T11:03:59;7.40;;;2.70;;
75427;SDS011;64008;55.612;37.698;2023-04-24T11:06:30;6.55;;;2.72;;
75427;SDS011;64008;55.612;37.698;2023-04-24T11:09:02;6.07;;;3.00;;
75427;SDS011;64008;55.612;37.698;2023-04-24T11:11:29;8.05;;;3.17;;
75427;SDS011;64008;55.612;37.698;2023-04-24T11:16:31;5.95;;;3.10;;
75427;SDS011;64008;55.612;37.698;2023-04-24T11:19:08;6.05;;;2.88;;
75427;SDS011;64008;55.612;37.698;2023-04-24T11:21:39;5.10;;;2.63;;
75427;SDS011;64008;55.612;37.698;2023-04-24T11:24:33;5.65;;;2.55;;
75427;SDS011;64008;55.612;37.698;2023-04-24T11:32:23;5.78;;;3.17;;
75427;SDS011;64008;55.612;37.698;2023-04-24T11:34:53;6.05;;;3.25;;
75427;SDS011;64008;55.612;37.698;2023-04-24T11:37:21;7.22;;;3.30;;
75427;SDS011;64008;55.612;37.698;2023-04-24T11:39:56;7.22;;;3.63;;
75427;SDS011;64008;55.612;37.698;2023-04-24T11:42:23;6.72;;;3.38;;
75427;SDS011;64008;55.612;37.698;2023-04-24T11:44:49;5.95;;;3.03;;
75427;SDS011;64008;55.612;37.698;2023-04-24T11:49:41;6.75;;;3.17;;
75427;SDS011;64008;55.612;37.698;2023-04-24T11:52:06;6.43;;;3.03;;
75427;SDS011;64008;55.612;37.698;2023-04-24T11:54:32;7.70;;;2.92;;
75427;SDS011;64008;55.612;37.698;2023-04-24T11:56:57;6.07;;;2.65;;
75427;SDS011;64008;55.612;37.698;2023-04-24T11:59:23;4.88;;;2.60;;
75427;SDS011;64008;55.612;37.698;2023-04-24T12:01:48;5.47;;;2.80;;
75427;SDS011;64008;55.612;37.698;2023-04-24T12:07:00;6.68;;;2.85;;
75427;SDS011;64008;55.612;37.698;2023-04-24T12:09:28;5.22;;;2.30;;
75427;SDS011;64008;55.612;37.698;2023-04-24T12:11:55;5.82;;;3.25;;
75427;SDS011;64008;55.612;37.698;2023-04-24T12:14:22;6.45;;;2.92;;
75427;SDS011;64008;55.612;37.698;2023-04-24T12:19:20;5.20;;;2.70;;
75427;SDS011;64008;55.612;37.698;2023-04-24T12:21:58;5.85;;;2.58;;
75427;SDS011;64008;55.612;37.698;2023-04-24T12:24:27;6.78;;;2.33;;
75427;SDS011;64008;55.612;37.698;2023-04-24T12:26:52;6.55;;;2.88;;
75427;SDS011;64008;55.612;37.698;2023-04-24T12:29:21;5.93;;;2.40;;
75427;SDS011;64008;55.612;37.698;2023-04-24T12:31:47;6.38;;;2.30;;
75427;SDS011;64008;55.612;37.698;2023-04-24T12:34:22;5.28;;;2.50;;
75427;SDS011;64008;55.612;37.698;2023-04-24T12:36:49;4.20;;;2.03;;
75427;SDS011;64008;55.612;37.698;2023-04-24T12:39:16;5.20;;;2.55;;
75427;SDS011;64008;55.612;37.698;2023-04-24T12:41:55;4.93;;;2.10;;
75427;SDS011;64008;55.612;37.698;2023-04-24T12:44:31;6.35;;;2.83;;
75427;SDS011;64008;55.612;37.698;2023-04-24T12:47:00;6.07;;;2.35;;
75427;SDS011;64008;55.612;37.698;2023-04-24T12:49:27;5.18;;;2.20;;
75427;SDS011;64008;55.612;37.698;2023-04-24T12:51:53;5.93;;;2.60;;
75427;SDS011;64008;55.612;37.698;2023-04-24T12:54:19;6.68;;;2.58;;
75427;SDS011;64008;55.612;37.698;2023-04-24T12:56:44;5.32;;;2.17;;
75427;SDS011;64008;55.612;37.698;2023-04-24T12:59:10;5.50;;;2.15;;
75427;SDS011;64008;55.612;37.698;2023-04-24T13:01:36;5.90;;;2.85;;
75427;SDS011;64008;55.612;37.698;2023-04-24T13:04:01;4.72;;;2.05;;
75427;SDS011;64008;55.612;37.698;2023-04-24T13:06:27;5.38;;;2.40;;
75427;SDS011;64008;55.612;37.698;2023-04-24T13:08:53;5.95;;;2.40;;
75427;SDS011;64008;55.612;37.698;2023-04-24T13:11:20;7.40;;;2.80;;
75427;SDS011;64008;55.612;37.698;2023-04-24T13:13:47;5.25;;;2.50;;
75427;SDS011;64008;55.612;37.698;2023-04-24T13:16:12;4.95;;;2.20;;
75427;SDS011;64008;55.612;37.698;2023-04-24T13:18:38;7.10;;;2.80;;
75427;SDS011;64008;55.612;37.698;2023-04-24T13:21:03;4.70;;;2.40;;
75427;SDS011;64008;55.612;37.698;2023-04-24T13:23:29;4.30;;;2.20;;
75427;SDS011;64008;55.612;37.698;2023-04-24T13:25:55;5.88;;;2.20;;
75427;SDS011;64008;55.612;37.698;2023-04-24T13:28:24;4.35;;;2.30;;
75427;SDS011;64008;55.612;37.698;2023-04-24T13:30:50;5.22;;;2.88;;
75427;SDS011;64008;55.612;37.698;2023-04-24T13:33:16;4.47;;;2.38;;
75427;SDS011;64008;55.612;37.698;2023-04-24T13:35:41;7.90;;;2.70;;
75427;SDS011;64008;55.612;37.698;2023-04-24T13:38:07;5.38;;;2.38;;
75427;SDS011;64008;55.612;37.698;2023-04-24T13:40:33;4.70;;;2.42;;
75427;SDS011;64008;55.612;37.698;2023-04-24T13:42:58;5.85;;;3.08;;
75427;SDS011;64008;55.612;37.698;2023-04-24T13:45:24;7.97;;;3.58;;
75427;SDS011;64008;55.612;37.698;2023-04-24T13:47:49;5.30;;;3.00;;
75427;SDS011;64008;55.612;37.698;2023-04-24T13:50:15;5.97;;;2.90;;
75427;SDS011;64008;55.612;37.698;2023-04-24T13:52:41;5.15;;;2.95;;
75427;SDS011;64008;55.612;37.698;2023-04-24T13:55:06;6.30;;;3.05;;
75427;SDS011;64008;55.612;37.698;2023-04-24T13:57:32;6.60;;;2.83;;
75427;SDS011;64008;55.612;37.698;2023-04-24T13:59:58;14.27;;;4.13;;
75427;SDS011;64008;55.612;37.698;2023-04-24T14:02:28;7.25;;;2.72;;
75427;SDS011;64008;55.612;37.698;2023-04-24T14:04:54;6.80;;;2.75;;
75427;SDS011;64008;55.612;37.698;2023-04-24T14:07:19;6.05;;;2.65;;
75427;SDS011;64008;55.612;37.698;2023-04-24T14:09:45;6.18;;;3.08;;
75427;SDS011;64008;55.612;37.698;2023-04-24T14:12:10;5.38;;;2.40;;
75427;SDS011;64008;55.612;37.698;2023-04-24T14:14:36;4.85;;;2.70;;
75427;SDS011;64008;55.612;37.698;2023-04-24T14:17:02;7.63;;;2.67;;
75427;SDS011;64008;55.612;37.698;2023-04-24T14:19:27;5.82;;;2.53;;
75427;SDS011;64008;55.612;37.698;2023-04-24T14:21:53;6.47;;;2.25;;
75427;SDS011;64008;55.612;37.698;2023-04-24T14:24:20;6.05;;;2.72;;
75427;SDS011;64008;55.612;37.698;2023-04-24T14:26:46;6.50;;;2.55;;
75427;SDS011;64008;55.612;37.698;2023-04-24T14:29:11;5.78;;;2.53;;
75427;SDS011;64008;55.612;37.698;2023-04-24T14:31:37;5.95;;;2.33;;
75427;SDS011;64008;55.612;37.698;2023-04-24T14:34:02;5.32;;;2.42;;
75427;SDS011;64008;55.612;37.698;2023-04-24T14:36:28;6.55;;;2.60;;
75427;SDS011;64008;55.612;37.698;2023-04-24T14:38:53;4.82;;;2.13;;
75427;SDS011;64008;55.612;37.698;2023-04-24T14:41:19;5.40;;;2.13;;
75427;SDS011;64008;55.612;37.698;2023-04-24T14:43:45;5.63;;;2.40;;
75427;SDS011;64008;55.612;37.698;2023-04-24T14:46:10;5.07;;;2.47;;
75427;SDS011;64008;55.612;37.698;2023-04-24T14:48:36;5.32;;;2.47;;
75427;SDS011;64008;55.612;37.698;2023-04-24T14:51:01;8.13;;;2.55;;
75427;SDS011;64008;55.612;37.698;2023-04-24T14:53:27;7.20;;;2.20;;
75427;SDS011;64008;55.612;37.698;2023-04-24T14:55:52;4.78;;;2.67;;
75427;SDS011;64008;55.612;37.698;2023-04-24T14:58:18;10.35;;;2.30;;
75427;SDS011;64008;55.612;37.698;2023-04-24T15:00:44;5.07;;;2.10;;
75427;SDS011;64008;55.612;37.698;2023-04-24T15:03:09;5.25;;;2.20;;
75427;SDS011;64008;55.612;37.698;2023-04-24T15:05:35;5.35;;;2.35;;